Lafkin, Texas
Current Conditions -  °F | °C
As of 11:15 AM on Thursday 27 Nov 2014 (Local Time) from KT65 Reporting Station
Clear Clear  
Wind Chill: 73°   Ceiling: Unl
Heat Index: 73°   Visibility: 10mi
Dew Point: 53°   Wind: 0mph
Humidity: 49%   Direction: NA
Pressure: 30.43"   Gusts: NA
Location:  26.1795°N, 97.829°W
Report Text: KT65 271715Z AUTO 00000KT 10SM CLR 23/11 A3043 RMK AO2 T02250114
Loading
Personal Weather Stations






























Interactive Weather Map New forecast layout! Learn more

10-Day Weather Forecast

Advertisements
Track Severe Weather on mobile